createdAt,value
2022-09-11T00:00:44.069Z,57.50
2022-09-11T00:03:10.851Z,59.87
2022-09-11T00:05:39.355Z,59.80
2022-09-11T00:08:11.475Z,61.00
2022-09-11T00:10:40.217Z,64.77
2022-09-11T00:13:07.601Z,62.47
2022-09-11T00:15:38.547Z,62.93
2022-09-11T00:18:06.149Z,62.53
2022-09-11T00:20:33.814Z,67.53
2022-09-11T00:23:04.939Z,65.43
2022-09-11T00:25:35.354Z,66.87
2022-09-11T00:28:02.301Z,67.87
2022-09-11T00:30:29.041Z,72.03
2022-09-11T00:32:55.776Z,74.33
2022-09-11T00:35:22.611Z,75.40
2022-09-11T00:37:49.146Z,71.90
2022-09-11T00:40:16.482Z,74.57
2022-09-11T00:42:43.188Z,70.93
2022-09-11T00:45:20.132Z,72.30
2022-09-11T00:47:47.662Z,77.00
2022-09-11T00:50:19.321Z,76.10
2022-09-11T00:52:53.959Z,77.20
2022-09-11T00:55:23.125Z,75.80
2022-09-11T00:57:51.413Z,72.30
2022-09-11T01:00:18.191Z,78.27
2022-09-11T01:02:46.993Z,80.27
2022-09-11T01:05:13.692Z,76.50
2022-09-11T01:07:41.384Z,77.47
2022-09-11T01:10:09.044Z,77.40
2022-09-11T01:12:46.033Z,78.30
2022-09-11T01:15:12.952Z,72.43
2022-09-11T01:18:00.324Z,76.37
2022-09-11T01:20:36.888Z,76.30
2022-09-11T01:23:22.491Z,75.57
2022-09-11T01:26:10.126Z,79.70
2022-09-11T01:28:40.080Z,74.43
2022-09-11T01:31:09.564Z,70.80
2022-09-11T01:33:38.698Z,72.77
2022-09-11T01:36:07.069Z,74.00
2022-09-11T01:38:39.200Z,69.07
2022-09-11T01:41:17.220Z,71.90
2022-09-11T01:44:21.444Z,76.20
2022-09-11T01:46:50.311Z,69.83
2022-09-11T01:49:19.202Z,71.37
2022-09-11T01:51:47.549Z,71.37
2022-09-11T01:54:19.374Z,69.87
2022-09-11T01:56:55.418Z,70.50
2022-09-11T01:59:27.475Z,68.47
2022-09-11T02:01:58.889Z,67.93
2022-09-11T02:04:30.000Z,68.70
2022-09-11T02:07:16.100Z,66.77
2022-09-11T02:09:59.935Z,70.80
2022-09-11T02:12:37.063Z,67.27
2022-09-11T02:15:04.898Z,67.80
2022-09-11T02:17:48.752Z,65.60
2022-09-11T02:20:27.601Z,66.07
2022-09-11T02:22:54.536Z,62.57
2022-09-11T02:25:24.127Z,64.93
2022-09-11T02:27:55.474Z,62.47
2022-09-11T02:30:22.813Z,66.07
2022-09-11T02:32:49.561Z,65.90
2022-09-11T02:35:16.380Z,63.20
2022-09-11T02:37:57.447Z,65.27
2022-09-11T02:40:27.987Z,60.50
2022-09-11T02:43:15.221Z,65.77
2022-09-11T02:45:48.229Z,63.80
2022-09-11T02:48:33.279Z,60.10
2022-09-11T02:51:02.978Z,61.23
2022-09-11T02:53:34.870Z,67.13
2022-09-11T02:56:08.072Z,64.27
2022-09-11T02:58:37.392Z,63.43
2022-09-11T03:01:04.768Z,62.87
2022-09-11T03:03:40.236Z,65.33
2022-09-11T03:06:13.658Z,67.20
2022-09-11T03:08:41.141Z,66.43
2022-09-11T03:11:09.391Z,70.07
2022-09-11T03:13:37.185Z,67.77
2022-09-11T03:16:04.901Z,69.07
2022-09-11T03:18:37.443Z,73.83
2022-09-11T03:21:11.841Z,82.77
2022-09-11T03:23:38.542Z,75.70
2022-09-11T03:26:05.581Z,77.37
2022-09-11T03:28:34.303Z,79.50
2022-09-11T03:31:07.769Z,79.37
2022-09-11T03:33:35.048Z,78.07
2022-09-11T03:36:01.756Z,80.23
2022-09-11T03:38:28.402Z,85.97
2022-09-11T03:40:55.079Z,85.07
2022-09-11T03:43:21.806Z,85.00
2022-09-11T03:45:51.925Z,84.67
2022-09-11T03:48:18.894Z,88.47
2022-09-11T03:50:47.483Z,97.37
2022-09-11T03:53:14.798Z,87.13
2022-09-11T03:55:42.321Z,104.00
2022-09-11T03:58:09.682Z,90.53
2022-09-11T04:00:44.086Z,99.10
2022-09-11T04:03:14.818Z,101.70
2022-09-11T04:05:55.286Z,97.03
2022-09-11T04:08:21.943Z,94.73
2022-09-11T04:10:49.059Z,102.50
2022-09-11T04:13:16.726Z,109.37
2022-09-11T04:15:43.421Z,121.00
2022-09-11T04:18:10.059Z,109.13
2022-09-11T04:20:41.143Z,125.17
2022-09-11T04:23:07.975Z,109.80
2022-09-11T04:25:34.596Z,121.43
2022-09-11T04:28:05.504Z,116.60
2022-09-11T04:30:34.725Z,149.77
2022-09-11T04:33:03.360Z,116.03
2022-09-11T04:35:30.356Z,107.33
2022-09-11T04:37:58.697Z,125.83
2022-09-11T04:40:25.369Z,121.37
2022-09-11T04:42:52.745Z,123.20
2022-09-11T04:45:19.930Z,132.53
2022-09-11T04:47:46.965Z,116.20
2022-09-11T04:50:13.723Z,144.50
2022-09-11T04:52:45.535Z,163.33
2022-09-11T04:55:12.558Z,169.03
2022-09-11T04:57:39.237Z,151.97
2022-09-11T05:00:06.936Z,140.87
2022-09-11T05:02:36.146Z,168.30
2022-09-11T05:05:03.497Z,142.43
2022-09-11T05:07:32.043Z,146.93
2022-09-11T05:10:00.359Z,151.10
2022-09-11T05:12:32.089Z,141.03
2022-09-11T05:14:59.321Z,137.20
2022-09-11T05:17:25.899Z,193.50
2022-09-11T05:19:52.847Z,153.57
2022-09-11T05:22:23.236Z,157.57
2022-09-11T05:24:53.961Z,164.73
2022-09-11T05:27:46.216Z,155.97
2022-09-11T05:30:13.874Z,156.23
2022-09-11T05:32:41.263Z,144.17
2022-09-11T05:35:08.018Z,154.40
2022-09-11T05:37:34.789Z,145.77
2022-09-11T05:40:04.006Z,144.57
2022-09-11T05:42:30.921Z,157.83
2022-09-11T05:44:57.518Z,147.90
2022-09-11T05:47:26.446Z,149.07
2022-09-11T05:49:55.111Z,135.17
2022-09-11T05:52:21.844Z,155.57
2022-09-11T05:54:51.432Z,158.67
2022-09-11T05:57:19.914Z,144.53
2022-09-11T05:59:46.772Z,151.87
2022-09-11T06:02:14.213Z,158.37
2022-09-11T06:04:46.546Z,145.87
2022-09-11T06:07:13.267Z,168.97
2022-09-11T06:09:42.064Z,153.07
2022-09-11T06:12:12.394Z,154.43
2022-09-11T06:14:42.650Z,144.93
2022-09-11T06:17:09.899Z,152.67
2022-09-11T06:19:37.169Z,128.77
2022-09-11T06:22:04.731Z,149.60
2022-09-11T06:24:34.959Z,134.37
2022-09-11T06:27:01.611Z,129.70
2022-09-11T06:29:31.029Z,131.07
2022-09-11T06:31:57.632Z,125.60
2022-09-11T06:34:27.604Z,114.83
2022-09-11T06:36:56.799Z,108.10
2022-09-11T06:39:23.554Z,102.63
2022-09-11T06:41:53.345Z,102.03
2022-09-11T06:44:27.432Z,90.23
2022-09-11T06:46:55.069Z,95.40
2022-09-11T06:49:23.370Z,90.57
2022-09-11T06:52:28.403Z,90.80
2022-09-11T06:55:18.087Z,82.23
2022-09-11T06:57:54.295Z,90.80
2022-09-11T07:00:25.447Z,86.87
2022-09-11T07:02:56.452Z,83.17
2022-09-11T07:05:25.606Z,81.33
2022-09-11T07:07:53.069Z,78.20
2022-09-11T07:10:19.676Z,82.70
2022-09-11T07:12:55.693Z,79.63
2022-09-11T07:15:22.360Z,75.33
2022-09-11T07:17:49.265Z,78.77
2022-09-11T07:20:17.597Z,80.10
2022-09-11T07:22:45.617Z,83.57
2022-09-11T07:25:14.349Z,74.37
2022-09-11T07:27:42.451Z,82.23
2022-09-11T07:30:10.701Z,80.50
2022-09-11T07:32:39.476Z,81.47
2022-09-11T07:35:07.138Z,71.97
2022-09-11T07:37:34.460Z,63.30
2022-09-11T07:40:01.512Z,58.07
2022-09-11T07:42:29.218Z,59.80
2022-09-11T07:44:57.318Z,61.77
2022-09-11T07:47:25.379Z,58.63
2022-09-11T07:49:52.702Z,58.60
2022-09-11T07:52:20.651Z,55.70
2022-09-11T07:54:54.038Z,56.60
2022-09-11T07:57:24.816Z,51.07
2022-09-11T07:59:52.347Z,50.40
2022-09-11T08:02:20.336Z,52.13
2022-09-11T08:04:48.543Z,46.50
2022-09-11T08:07:15.927Z,47.20
2022-09-11T08:09:42.649Z,47.13
2022-09-11T08:12:10.142Z,43.07
2022-09-11T08:14:36.968Z,44.27
2022-09-11T08:17:24.363Z,43.30
2022-09-11T08:19:53.239Z,44.53
2022-09-11T08:22:20.225Z,46.17
2022-09-11T08:24:48.474Z,45.13
2022-09-11T08:27:17.481Z,49.77
2022-09-11T08:29:45.877Z,48.07
2022-09-11T08:32:13.683Z,50.13
2022-09-11T08:34:40.969Z,48.73
2022-09-11T08:37:08.103Z,47.80
2022-09-11T08:39:35.608Z,45.53
2022-09-11T08:42:16.419Z,46.97
2022-09-11T08:44:50.303Z,46.27
2022-09-11T08:47:25.827Z,46.53
2022-09-11T08:50:13.908Z,42.93
2022-09-11T08:52:41.446Z,45.03
2022-09-11T08:55:14.613Z,46.23
2022-09-11T08:57:42.625Z,46.30
2022-09-11T09:00:18.714Z,42.47
2022-09-11T09:02:51.513Z,44.77
2022-09-11T09:05:21.834Z,43.87
2022-09-11T09:08:08.242Z,40.10
2022-09-11T09:10:44.041Z,37.50
2022-09-11T09:13:21.560Z,39.67
2022-09-11T09:16:04.632Z,39.27
2022-09-11T09:18:34.832Z,36.10
2022-09-11T09:21:13.644Z,41.70
2022-09-11T09:23:43.955Z,40.73
2022-09-11T09:26:17.246Z,31.07
2022-09-11T09:28:48.440Z,27.50
2022-09-11T09:31:17.868Z,30.17
2022-09-11T09:34:00.140Z,24.80
2022-09-11T09:36:48.388Z,24.83
2022-09-11T09:39:23.715Z,20.00
2022-09-11T09:42:19.531Z,18.47
2022-09-11T09:45:01.246Z,23.07
2022-09-11T09:47:29.741Z,21.83
2022-09-11T09:50:00.042Z,19.60
2022-09-11T09:52:31.799Z,14.97
2022-09-11T09:55:00.428Z,11.10
2022-09-11T09:57:30.207Z,12.23
2022-09-11T10:00:07.064Z,11.83
2022-09-11T10:02:40.473Z,13.27
2022-09-11T10:05:30.664Z,19.67
2022-09-11T10:10:57.355Z,16.33
2022-09-11T10:13:41.341Z,17.50
2022-09-11T10:16:24.522Z,10.90
2022-09-11T10:18:51.585Z,14.90
2022-09-11T10:21:22.496Z,14.40
2022-09-11T10:23:53.615Z,14.67
2022-09-11T10:26:25.543Z,18.20
2022-09-11T10:29:05.073Z,13.10
2022-09-11T10:31:48.398Z,12.90
2022-09-11T10:34:19.247Z,12.80
2022-09-11T10:36:56.616Z,14.30
2022-09-11T10:39:29.571Z,11.60
2022-09-11T10:42:08.408Z,10.60
2022-09-11T10:44:41.510Z,9.50
2022-09-11T10:51:30.289Z,10.23
2022-09-11T10:54:04.956Z,10.70
2022-09-11T10:56:35.936Z,9.20
2022-09-11T10:59:04.816Z,11.50
2022-09-11T11:01:31.567Z,13.33
2022-09-11T11:03:58.435Z,12.47
2022-09-11T11:06:34.382Z,11.13
2022-09-11T11:09:10.007Z,10.93
2022-09-11T11:11:53.016Z,10.80
2022-09-11T11:14:32.179Z,8.97
2022-09-11T11:17:18.248Z,8.53
2022-09-11T11:20:14.164Z,8.50
2022-09-11T11:22:59.675Z,10.20
2022-09-11T11:25:35.378Z,9.63
2022-09-11T11:28:08.077Z,12.30
2022-09-11T11:30:42.492Z,10.63
2022-09-11T11:33:09.063Z,11.30
2022-09-11T11:35:45.116Z,10.23
2022-09-11T11:38:27.937Z,8.70
2022-09-11T11:41:30.314Z,9.60
2022-09-11T11:45:04.366Z,10.97
2022-09-11T11:47:42.837Z,8.30
2022-09-11T11:50:14.006Z,8.53
2022-09-11T12:00:55.247Z,5.53
2022-09-11T12:03:25.613Z,7.73
2022-09-11T12:05:55.588Z,6.43
2022-09-11T12:09:12.913Z,6.27
2022-09-11T12:12:16.389Z,6.23
2022-09-11T12:14:50.373Z,6.80
2022-09-11T12:24:57.988Z,4.63
2022-09-11T12:27:37.584Z,5.20
2022-09-11T12:30:08.361Z,4.27
2022-09-11T12:33:11.502Z,5.50
2022-09-11T12:35:51.732Z,3.40
2022-09-11T12:38:29.233Z,2.03
2022-09-11T12:41:00.716Z,2.60
2022-09-11T12:43:57.982Z,4.67
2022-09-11T12:46:29.482Z,3.93
2022-09-11T12:49:22.681Z,4.10
2022-09-11T12:52:15.198Z,3.97
2022-09-11T13:06:17.540Z,2.43
2022-09-11T13:13:57.738Z,2.00
2022-09-11T13:16:46.371Z,1.67
2022-09-11T13:19:49.599Z,2.30
2022-09-11T13:32:39.479Z,2.30
2022-09-11T13:35:13.669Z,3.83
2022-09-11T13:41:59.747Z,2.23
2022-09-11T13:44:47.212Z,2.60
2022-09-11T13:47:22.873Z,1.97
2022-09-11T13:50:18.343Z,2.27
2022-09-11T13:52:46.203Z,3.10
2022-09-11T13:59:12.153Z,3.47
2022-09-11T14:06:04.471Z,4.00
2022-09-11T14:09:52.076Z,3.37
2022-09-11T14:13:54.577Z,4.00
2022-09-11T14:17:01.445Z,4.40
2022-09-11T14:19:30.696Z,3.90
2022-09-11T14:22:00.636Z,3.27
2022-09-11T14:24:35.195Z,2.90
2022-09-11T14:27:04.305Z,2.97
2022-09-11T14:29:42.709Z,3.83
2022-09-11T14:32:35.782Z,4.80
2022-09-11T14:35:06.630Z,5.50
2022-09-11T14:40:27.834Z,4.43
2022-09-11T14:42:55.900Z,4.43
2022-09-11T14:46:04.854Z,5.10
2022-09-11T14:48:36.672Z,4.80
2022-09-11T14:51:12.859Z,3.30
2022-09-11T14:53:46.082Z,3.37
2022-09-11T14:56:30.851Z,2.43
2022-09-11T14:59:06.144Z,2.50
2022-09-11T15:01:33.689Z,2.30
2022-09-11T15:04:03.748Z,2.83
2022-09-11T15:06:31.377Z,4.07
2022-09-11T15:09:01.512Z,4.63
2022-09-11T15:11:46.106Z,4.00
2022-09-11T15:14:23.654Z,3.97
2022-09-11T15:17:40.334Z,3.83
2022-09-11T15:20:28.643Z,4.17
2022-09-11T15:23:00.195Z,4.47
2022-09-11T15:25:37.072Z,5.10
2022-09-11T15:28:22.609Z,4.77
2022-09-11T15:31:12.690Z,5.30
2022-09-11T15:33:39.893Z,4.60
2022-09-11T15:36:07.033Z,5.53
2022-09-11T15:42:04.734Z,3.97
2022-09-11T15:45:02.648Z,4.60
2022-09-11T15:47:37.449Z,4.93
2022-09-11T15:50:34.755Z,4.10
2022-09-11T16:10:00.204Z,4.50
2022-09-11T16:16:41.051Z,4.70
2022-09-11T16:19:09.374Z,4.40
2022-09-11T16:21:48.752Z,5.30
2022-09-11T16:24:22.793Z,4.40
2022-09-11T16:26:49.845Z,4.60
2022-09-11T16:29:18.218Z,5.43
2022-09-11T16:32:05.936Z,5.10
2022-09-11T16:35:06.885Z,5.10
2022-09-11T16:37:47.414Z,5.57
2022-09-11T16:40:17.344Z,6.33
2022-09-11T16:42:44.241Z,5.07
2022-09-11T16:45:14.309Z,7.00
2022-09-11T16:47:41.396Z,6.00
2022-09-11T16:50:08.797Z,7.23
2022-09-11T16:52:36.055Z,6.57
2022-09-11T16:55:04.900Z,6.57
2022-09-11T16:57:33.339Z,7.50
2022-09-11T17:00:00.319Z,6.20
2022-09-11T17:02:27.328Z,6.10
2022-09-11T17:04:56.186Z,7.07
2022-09-11T17:07:23.874Z,7.73
2022-09-11T17:09:53.763Z,6.80
2022-09-11T17:12:49.387Z,7.97
2022-09-11T17:15:16.659Z,8.30
2022-09-11T17:17:44.205Z,8.47
2022-09-11T17:20:12.590Z,8.47
2022-09-11T17:22:39.659Z,9.60
2022-09-11T17:25:51.811Z,9.20
2022-09-11T17:28:39.406Z,9.17
2022-09-11T17:31:16.871Z,9.30
2022-09-11T17:33:45.643Z,8.97
2022-09-11T17:36:23.393Z,9.03
2022-09-11T17:38:59.408Z,9.50
2022-09-11T17:41:29.162Z,9.70
2022-09-11T17:50:36.207Z,12.40
2022-09-11T17:53:05.814Z,11.80
2022-09-11T17:55:35.883Z,12.73
2022-09-11T17:58:02.737Z,13.20
2022-09-11T18:00:42.941Z,12.67
2022-09-11T18:03:55.199Z,14.90
2022-09-11T18:06:28.365Z,14.60
2022-09-11T18:08:57.574Z,12.77
2022-09-11T18:11:24.293Z,12.93
2022-09-11T18:13:51.426Z,11.50
2022-09-11T18:16:18.861Z,12.00
2022-09-11T18:18:45.877Z,11.70
2022-09-11T18:21:12.655Z,13.53
2022-09-11T18:27:29.729Z,12.30
2022-09-11T18:29:57.231Z,12.63
2022-09-11T18:32:24.340Z,12.73
2022-09-11T18:34:51.404Z,16.70
2022-09-11T18:37:18.281Z,13.57
2022-09-11T18:39:46.508Z,16.80
2022-09-11T18:42:13.363Z,15.30
2022-09-11T18:44:40.032Z,14.73
2022-09-11T18:47:06.812Z,14.10
2022-09-11T18:49:34.821Z,15.10
2022-09-11T18:52:03.251Z,18.40
2022-09-11T18:54:30.397Z,16.83
2022-09-11T18:56:57.821Z,17.40
2022-09-11T18:59:24.869Z,19.00
2022-09-11T19:01:51.950Z,17.43
2022-09-11T19:04:20.354Z,20.50
2022-09-11T19:06:47.295Z,19.87
2022-09-11T19:09:14.857Z,21.47
2022-09-11T19:11:45.104Z,18.60
2022-09-11T19:14:13.261Z,18.23
2022-09-11T19:16:40.847Z,21.30
2022-09-11T19:19:08.163Z,20.57
2022-09-11T19:21:35.714Z,21.47
2022-09-11T19:24:02.983Z,20.70
2022-09-11T19:26:34.276Z,21.20
2022-09-11T19:29:01.192Z,20.53
2022-09-11T19:31:29.716Z,21.57
2022-09-11T19:33:57.349Z,21.30
2022-09-11T19:36:25.747Z,19.17
2022-09-11T19:38:55.162Z,21.37
2022-09-11T19:41:23.115Z,20.63
2022-09-11T19:43:50.699Z,21.90
2022-09-11T19:46:25.150Z,21.67
2022-09-11T19:48:53.468Z,21.20
2022-09-11T19:51:22.958Z,22.90
2022-09-11T19:53:50.752Z,21.63
2022-09-11T19:56:18.704Z,20.90
2022-09-11T19:58:45.876Z,21.53
2022-09-11T20:01:13.740Z,20.13
2022-09-11T20:03:41.800Z,22.47
2022-09-11T20:06:09.183Z,21.40
2022-09-11T20:08:36.636Z,20.50
2022-09-11T20:11:05.904Z,20.53
2022-09-11T20:13:33.696Z,21.03
2022-09-11T20:16:04.236Z,19.97
2022-09-11T20:18:31.588Z,20.43
2022-09-11T20:21:03.051Z,22.10
2022-09-11T20:23:30.328Z,22.73
2022-09-11T20:26:17.564Z,20.67
2022-09-11T20:28:48.200Z,20.80
2022-09-11T20:31:15.923Z,20.97
2022-09-11T20:33:44.300Z,21.60
2022-09-11T20:36:11.212Z,23.97
2022-09-11T20:38:38.087Z,23.50
2022-09-11T20:41:06.498Z,22.87
2022-09-11T20:43:33.272Z,23.10
2022-09-11T20:46:00.538Z,23.53
2022-09-11T20:48:27.302Z,23.50
2022-09-11T20:50:54.156Z,23.67
2022-09-11T20:53:22.896Z,23.37
2022-09-11T20:55:50.130Z,24.17
2022-09-11T20:58:16.849Z,20.30
2022-09-11T21:00:45.123Z,20.53
2022-09-11T21:03:11.778Z,20.00
2022-09-11T21:05:38.608Z,23.10
2022-09-11T21:08:05.461Z,22.97
2022-09-11T21:10:34.766Z,22.13
2022-09-11T21:13:01.395Z,24.80
2022-09-11T21:15:28.056Z,23.07
2022-09-11T21:17:54.632Z,22.53
2022-09-11T21:20:23.382Z,24.20
2022-09-11T21:22:50.232Z,24.63
2022-09-11T21:25:17.050Z,24.33
2022-09-11T21:27:43.723Z,24.13
2022-09-11T21:30:10.517Z,25.30
2022-09-11T21:32:37.084Z,24.30
2022-09-11T21:35:04.085Z,26.23
2022-09-11T21:37:31.762Z,25.30
2022-09-11T21:39:58.476Z,26.40
2022-09-11T21:42:25.347Z,26.70
2022-09-11T21:44:51.905Z,25.53
2022-09-11T21:47:18.841Z,25.53
2022-09-11T21:49:45.487Z,25.57
2022-09-11T21:52:12.113Z,24.23
2022-09-11T21:54:39.142Z,26.30
2022-09-11T21:57:05.862Z,26.10
2022-09-11T21:59:32.734Z,26.93
2022-09-11T22:01:59.585Z,25.70
2022-09-11T22:04:26.201Z,29.33
2022-09-11T22:06:53.299Z,26.97
2022-09-11T22:09:20.810Z,26.90
2022-09-11T22:11:47.681Z,27.57
2022-09-11T22:14:18.978Z,28.20
2022-09-11T22:16:46.167Z,28.83
2022-09-11T22:19:12.956Z,29.33
2022-09-11T22:21:39.811Z,29.87
2022-09-11T22:24:06.419Z,27.53
2022-09-11T22:26:33.173Z,27.77
2022-09-11T22:28:59.999Z,28.90
2022-09-11T22:31:28.218Z,28.93
2022-09-11T22:33:55.160Z,29.87
2022-09-11T22:36:26.290Z,28.47
2022-09-11T22:38:53.383Z,30.70
2022-09-11T22:41:20.560Z,28.00
2022-09-11T22:43:48.817Z,33.17
2022-09-11T22:46:16.365Z,32.00
2022-09-11T22:48:43.756Z,31.27
2022-09-11T22:51:10.575Z,32.20
2022-09-11T22:53:39.487Z,27.10
2022-09-11T22:56:06.559Z,28.67
2022-09-11T22:58:33.253Z,30.10
2022-09-11T23:01:02.455Z,31.70
2022-09-11T23:03:29.527Z,35.70
2022-09-11T23:06:15.211Z,36.70
2022-09-11T23:08:41.913Z,38.60
2022-09-11T23:11:09.313Z,39.67
2022-09-11T23:13:37.958Z,36.87
2022-09-11T23:16:12.965Z,36.57
2022-09-11T23:18:39.558Z,36.43
2022-09-11T23:21:06.181Z,37.00
2022-09-11T23:23:33.001Z,34.30
2022-09-11T23:25:59.689Z,32.97
2022-09-11T23:28:26.278Z,32.80
2022-09-11T23:30:52.830Z,33.90
2022-09-11T23:33:19.358Z,29.70
2022-09-11T23:35:45.906Z,29.77
2022-09-11T23:38:12.440Z,29.20
2022-09-11T23:40:38.969Z,32.13
2022-09-11T23:43:05.565Z,31.20
2022-09-11T23:45:32.214Z,31.07
2022-09-11T23:47:58.823Z,30.03
2022-09-11T23:50:25.443Z,32.97
2022-09-11T23:52:51.948Z,31.37
2022-09-11T23:55:19.155Z,32.53
2022-09-11T23:57:45.727Z,35.40
